Time;durP1;ratioP1;P1;durP2;ratioP2;P2;SDS_P1;SDS_P2;PMS_P1;PMS_P2;Temp;Humidity;BMP_temperature;BMP_pressure;BME280_temperature;BME280_humidity;BME280_pressure;Samples;Min_cycle;Max_cycle;Signal;HPM_P1;HPM_P2
2022/01/16 00:08:45;;;;;;;194.77;76.67;;;;;;;-4.11;90.38;100000.59;4386098;79;21062;-91
2022/01/16 00:14:47;;;;;;;204.53;80.37;;;;;;;-4.22;90.03;99998.89;4301959;81;21050;-93
2022/01/16 00:20:50;;;;;;;202.67;77.23;;;;;;;-4.25;89.98;99992.72;4274486;82;21010;-92
2022/01/16 00:26:52;;;;;;;189.67;76.07;;;;;;;-4.22;90.04;99986.34;4294813;81;21675;-92
2022/01/16 00:32:59;;;;;;;181.33;65.57;;;;;;;-4.38;89.72;99959.72;4289914;81;21051;-92
2022/01/16 00:38:59;;;;;;;176.37;68.83;;;;;;;-4.44;89.53;99973.59;4287749;82;21050;-91
2022/01/16 00:45:01;;;;;;;160.77;62.90;;;;;;;-4.51;89.74;99964.95;4289974;82;21037;-93
2022/01/16 00:51:03;;;;;;;190.83;67.67;;;;;;;-4.47;90.08;99968.75;4287529;82;21665;-90
2022/01/16 00:57:05;;;;;;;165.73;64.47;;;;;;;-4.55;89.58;99991.91;4285974;82;21058;-91
2022/01/16 01:03:07;;;;;;;157.10;57.93;;;;;;;-4.53;90.16;99995.67;4298171;81;21050;-92
2022/01/16 01:09:08;;;;;;;168.97;65.93;;;;;;;-4.54;89.80;99966.80;4289252;80;21557;-92
2022/01/16 01:15:12;;;;;;;191.93;74.10;;;;;;;-4.53;89.68;99995.67;4379547;79;21007;-92
2022/01/16 01:21:27;;;;;;;185.77;76.10;;;;;;;-4.82;90.09;99941.69;4360406;79;21498;-92
2022/01/16 01:27:23;;;;;;;201.97;77.70;;;;;;;-4.93;89.51;99956.80;4380274;79;21039;-92
2022/01/16 01:33:25;;;;;;;189.60;73.00;;;;;;;-4.96;90.08;99952.48;4375111;79;21326;-92
2022/01/16 01:39:27;;;;;;;196.10;70.63;;;;;;;-4.89;90.02;99907.16;4377478;79;21054;-91
2022/01/16 01:52:05;;;;;;;165.97;53.98;;;;;;;-5.01;90.12;99809.05;4372860;79;21681;-93
2022/01/16 01:58:07;;;;;;;167.07;66.70;;;;;;;-4.95;90.07;99841.97;4379434;79;21027;-91
2022/01/16 02:04:09;;;;;;;153.90;63.17;;;;;;;-4.99;90.21;99859.53;4378595;79;21027;-91
2022/01/16 02:10:11;;;;;;;158.13;60.30;;;;;;;-5.01;89.69;99869.13;4384582;79;21007;-93
2022/01/16 02:35:22;;;;;;;143.60;56.90;;;;;;;-5.24;89.33;99885.45;4370499;79;21082;-93
2022/01/16 02:41:24;;;;;;;151.17;57.63;;;;;;;-5.36;89.08;99894.66;4376256;79;21060;-93
2022/01/16 02:47:26;;;;;;;159.50;66.60;;;;;;;-5.47;89.22;99890.27;4379022;79;21054;-92
2022/01/16 02:53:28;;;;;;;176.77;65.00;;;;;;;-5.56;89.33;99869.09;4379685;79;21018;-93
2022/01/16 02:59:30;;;;;;;182.20;69.37;;;;;;;-5.48;89.84;99869.44;4374291;79;21006;-95
2022/01/16 03:05:33;;;;;;;184.40;67.80;;;;;;;-5.45;89.80;99854.26;4358976;79;21026;-94
2022/01/16 03:11:40;;;;;;;172.60;65.03;;;;;;;-5.48;89.23;99869.98;4371649;79;21031;-93
2022/01/16 03:21:53;;;;;;;174.47;61.33;;;;;;;-5.71;88.81;99871.04;4377652;79;21582;-94
2022/01/16 03:23:46;;;;;;;182.30;66.17;;;;;;;-5.78;89.42;99862.95;4377666;79;21050;-93
2022/01/16 03:29:52;;;;;;;164.73;61.33;;;;;;;-5.61;89.80;99861.02;4381631;79;21078;-92
2022/01/16 03:35:56;;;;;;;171.23;59.97;;;;;;;-5.68;89.04;99857.20;4374381;79;21022;-93
2022/01/16 03:42:01;;;;;;;158.07;61.23;;;;;;;-5.84;89.12;99854.09;4379726;79;21077;-92
2022/01/16 03:48:02;;;;;;;155.30;60.20;;;;;;;-5.75;89.66;99841.12;4374582;79;21022;-93
2022/01/16 03:54:08;;;;;;;159.67;61.37;;;;;;;-5.91;89.43;99830.83;4352442;80;21656;-94
2022/01/16 04:00:11;;;;;;;148.80;55.53;;;;;;;-6.05;89.55;99812.25;4375909;79;21614;-94
2022/01/16 04:06:14;;;;;;;136.80;54.23;;;;;;;-6.11;89.67;99807.10;4353983;79;21169;-93
2022/01/16 04:12:21;;;;;;;139.53;53.57;;;;;;;-6.01;90.26;99803.24;4385456;79;21002;-92
2022/01/16 04:18:23;;;;;;;136.27;51.97;;;;;;;-5.90;89.86;99796.44;4390970;79;21011;-93
2022/01/16 04:24:27;;;;;;;126.77;51.07;;;;;;;-6.02;89.42;99790.95;4398630;79;21030;-94
2022/01/16 04:30:31;;;;;;;125.40;49.47;;;;;;;-6.09;90.00;99799.67;4395447;79;21087;-92
2022/01/16 04:36:37;;;;;;;147.53;55.37;;;;;;;-6.07;89.61;99797.55;4392486;79;21015;-93
2022/01/16 04:49:01;;;;;;;157.97;59.70;;;;;;;-6.18;89.72;99778.48;4395986;79;21078;-93
2022/01/16 04:55:11;;;;;;;132.33;49.07;;;;;;;-6.20;89.87;99787.27;4352017;79;21018;-93
2022/01/16 05:01:19;;;;;;;141.07;53.70;;;;;;;-6.34;89.03;99777.48;4384839;79;21053;-94
2022/01/16 05:07:25;;;;;;;136.27;49.00;;;;;;;-6.40;89.29;99762.48;4327630;81;21170;-93
2022/01/16 05:20:33;;;;;;;141.00;53.40;;;;;;;-6.40;89.75;99765.15;4403383;81;21070;-93
2022/01/16 05:26:43;;;;;;;121.00;47.33;;;;;;;-6.25;90.16;99765.88;4394385;81;21541;-92
2022/01/16 05:33:22;;;;;;;128.50;48.53;;;;;;;-6.15;90.11;99740.70;4388781;79;21046;-92
2022/01/16 05:46:37;;;;;;;140.77;50.57;;;;;;;-6.17;89.29;99741.47;4364366;81;21069;-93
2022/01/16 05:52:47;;;;;;;135.37;51.87;;;;;;;-6.32;89.00;99731.94;4377338;81;21046;-94
2022/01/16 05:59:07;;;;;;;124.57;50.10;;;;;;;-6.30;89.54;99736.50;4383433;81;21023;-94
2022/01/16 06:05:16;;;;;;;128.67;50.10;;;;;;;-6.30;89.15;99738.65;4381611;79;20995;-92
2022/01/16 06:11:19;;;;;;;144.13;51.03;;;;;;;-6.37;89.40;99737.23;4386163;80;21553;-91
2022/01/16 06:24:04;;;;;;;124.60;45.63;;;;;;;-6.46;89.03;99736.84;4390411;81;20994;-93
2022/01/16 06:45:20;;;;;;;115.67;43.13;;;;;;;-6.48;89.61;99700.86;4337763;81;21082;-94
2022/01/16 07:40:40;;;;;;;103.10;44.43;;;;;;;-5.82;90.30;99644.01;4381062;79;21082;-93
2022/01/16 07:53:55;;;;;;;130.07;51.13;;;;;;;-5.25;91.40;99659.66;4367455;81;21039;-93
2022/01/16 07:59:57;;;;;;;119.23;48.00;;;;;;;-4.59;92.35;99652.02;4188270;83;21075;-83
2022/01/16 08:05:59;;;;;;;115.20;47.80;;;;;;;-3.97;92.24;99644.20;4188719;83;21083;-82
2022/01/16 08:12:00;;;;;;;101.33;41.77;;;;;;;-3.51;92.29;99646.38;4187884;83;21035;-83
2022/01/16 08:18:02;;;;;;;108.20;46.40;;;;;;;-3.22;92.19;99642.08;4188325;83;21023;-84
2022/01/16 08:24:04;;;;;;;114.67;46.13;;;;;;;-2.98;92.03;99636.95;4120258;81;41307;-84
2022/01/16 08:30:09;;;;;;;100.27;43.10;;;;;;;-2.72;92.11;99626.42;3985405;88;21068;-84
2022/01/16 08:36:11;;;;;;;91.77;42.07;;;;;;;-2.38;92.44;99619.34;3997148;87;21086;-84
2022/01/16 08:42:12;;;;;;;91.47;41.67;;;;;;;-2.02;92.40;99607.33;3939696;86;51407;-83
2022/01/16 08:48:13;;;;;;;75.80;35.50;;;;;;;-1.65;92.63;99588.80;4113223;85;21542;-84
2022/01/16 08:54:15;;;;;;;78.37;34.87;;;;;;;-1.09;92.61;99564.36;4098610;79;21043;-85
2022/01/16 09:00:17;;;;;;;78.33;32.48;;;;;;;-0.45;93.31;99563.33;4047168;87;21541;-84
2022/01/16 09:06:19;;;;;;;68.02;30.62;;;;;;;0.38;93.24;99552.66;4182233;84;21022;-84
2022/01/16 09:12:27;;;;;;;77.25;31.42;;;;;;;0.94;92.54;99549.78;4183269;84;21030;-84
2022/01/16 09:18:31;;;;;;;83.42;38.70;;;;;;;1.05;91.58;99539.06;4187769;84;21099;-84
2022/01/16 09:24:36;;;;;;;96.40;42.30;;;;;;;1.13;91.60;99528.89;4176954;85;21033;-84
2022/01/16 09:30:37;;;;;;;93.70;40.67;;;;;;;1.22;91.83;99510.94;4182217;84;22244;-84
2022/01/16 09:36:38;;;;;;;90.83;40.78;;;;;;;1.71;91.95;99492.60;4045472;85;49465;-84
2022/01/16 09:42:39;;;;;;;87.67;43.55;;;;;;;2.25;91.63;99489.66;4018565;87;22176;-84
2022/01/16 09:48:52;;;;;;;104.83;49.42;;;;;;;2.30;90.67;99482.22;4108631;86;21022;-85
2022/01/16 09:54:53;;;;;;;109.70;52.67;;;;;;;2.31;90.92;99477.08;4080879;84;21106;-87
2022/01/16 10:00:55;;;;;;;111.68;53.78;;;;;;;2.49;90.67;99468.52;4051658;86;22091;-86
2022/01/16 10:06:59;;;;;;;120.13;53.63;;;;;;;2.79;90.53;99460.91;4129553;85;21126;-86
2022/01/16 10:13:33;;;;;;;110.25;52.75;;;;;;;3.06;89.55;99443.12;4135948;85;21083;-86
2022/01/16 10:20:05;;;;;;;102.07;48.83;;;;;;;3.38;89.64;99441.36;4132525;85;21058;-87
2022/01/16 10:26:23;;;;;;;96.42;47.10;;;;;;;3.81;88.47;99422.39;4128084;85;21631;-88
2022/01/16 10:32:31;;;;;;;96.87;48.50;;;;;;;4.07;89.25;99428.02;4131157;84;21987;-87
2022/01/16 10:38:36;;;;;;;93.82;46.42;;;;;;;4.08;88.62;99408.50;4133598;85;21118;-88
2022/01/16 10:44:38;;;;;;;86.67;45.67;;;;;;;4.13;88.34;99403.72;4110802;82;48209;-88
2022/01/16 10:50:44;;;;;;;90.32;44.42;;;;;;;4.32;87.95;99401.98;4107429;85;21024;-89
2022/01/16 10:56:46;;;;;;;88.95;41.53;;;;;;;4.37;86.48;99397.76;4091626;85;21010;-88
2022/01/16 11:02:51;;;;;;;88.75;42.65;;;;;;;4.72;86.37;99383.72;4094361;86;21024;-88
2022/01/16 11:09:01;;;;;;;85.35;41.95;;;;;;;4.95;84.93;99358.44;4092042;86;21068;-88
2022/01/16 11:15:04;;;;;;;82.45;40.80;;;;;;;4.76;83.77;99350.73;4101069;85;21088;-88
2022/01/16 11:27:17;;;;;;;81.42;39.33;;;;;;;4.80;83.10;99338.68;4248274;82;21066;-89
2022/01/16 11:33:19;;;;;;;83.80;39.85;;;;;;;4.89;83.09;99335.34;4223748;83;21062;-89
2022/01/16 11:39:21;;;;;;;77.60;38.47;;;;;;;4.68;82.13;99325.81;4251436;83;21055;-90
2022/01/16 11:45:23;;;;;;;62.88;30.60;;;;;;;4.51;81.73;99325.91;4249589;82;21528;-89
2022/01/16 11:51:39;;;;;;;58.33;29.63;;;;;;;4.24;80.90;99333.70;4251631;83;21002;-90
2022/01/16 11:57:56;;;;;;;58.70;28.57;;;;;;;4.11;80.64;99335.50;4220590;81;21567;-91
2022/01/16 12:03:57;;;;;;;54.67;25.97;;;;;;;4.14;80.62;99326.73;4180528;82;21575;-90
2022/01/16 12:09:59;;;;;;;54.18;24.72;;;;;;;3.96;79.16;99334.66;4173839;84;21771;-89
2022/01/16 12:16:28;;;;;;;51.37;25.40;;;;;;;3.81;79.11;99324.91;4152788;84;22341;-91
2022/01/16 12:22:53;;;;;;;51.55;22.85;;;;;;;3.69;78.33;99328.30;4178499;84;21063;-91
2022/01/16 12:35:50;;;;;;;62.60;27.10;;;;;;;3.47;76.27;99323.62;4436766;78;22878;-89
2022/01/16 12:41:54;;;;;;;71.72;33.42;;;;;;;3.36;76.59;99310.17;4357674;80;20971;-89
2022/01/16 12:54:22;;;;;;;67.70;30.68;;;;;;;3.32;76.14;99311.36;4445977;79;23514;-87
2022/01/16 13:00:23;;;;;;;76.07;34.78;;;;;;;3.16;76.33;99302.16;4357516;80;21575;-89
2022/01/16 13:06:34;;;;;;;74.77;34.80;;;;;;;3.07;76.20;99293.23;4338397;80;21563;-90
2022/01/16 13:12:35;;;;;;;80.22;34.88;;;;;;;2.99;76.49;99279.95;4360409;80;21864;-89
2022/01/16 13:18:42;;;;;;;72.45;34.20;;;;;;;2.89;76.61;99270.02;4271750;80;76580;-89
2022/01/16 13:25:04;;;;;;;77.67;34.80;;;;;;;2.84;76.63;99262.86;4116156;84;21636;-89
2022/01/16 13:31:05;;;;;;;77.50;34.15;;;;;;;2.81;76.32;99256.73;4124165;84;21047;-87
2022/01/16 13:37:15;;;;;;;87.65;35.08;;;;;;;2.79;76.40;99244.63;4122962;84;21535;-88
2022/01/16 13:43:16;;;;;;;78.33;35.50;;;;;;;2.76;76.36;99231.75;4133773;84;21842;-88
2022/01/16 13:49:18;;;;;;;81.00;35.10;;;;;;;2.64;76.45;99230.25;4131361;83;20995;-88
2022/01/16 13:55:20;;;;;;;92.40;38.63;;;;;;;2.51;76.46;99221.17;4133420;84;21119;-88
2022/01/16 14:01:26;;;;;;;83.05;36.48;;;;;;;2.54;76.04;99205.67;4134745;84;21086;-88
2022/01/16 14:07:27;;;;;;;114.57;42.70;;;;;;;2.43;75.87;99198.18;4128402;84;21078;-87
2022/01/16 14:13:31;;;;;;;103.30;43.08;;;;;;;2.29;75.98;99188.88;4129871;84;22328;-88
2022/01/16 14:19:42;;;;;;;99.52;43.87;;;;;;;2.25;75.87;99185.78;4125649;83;21049;-88
2022/01/16 14:25:39;;;;;;;113.47;46.67;;;;;;;2.20;75.86;99184.57;4127258;84;21663;-88
2022/01/16 14:31:41;;;;;;;118.93;49.83;;;;;;;2.10;75.72;99172.73;4126496;84;21070;-88
2022/01/16 14:37:43;;;;;;;114.03;48.98;;;;;;;2.03;75.62;99166.45;4122946;84;21071;-88
2022/01/16 14:43:57;;;;;;;114.42;48.05;;;;;;;1.96;75.51;99152.59;4050445;86;21022;-87
2022/01/16 14:49:58;;;;;;;105.80;46.13;;;;;;;1.86;75.53;99146.16;4047819;86;21115;-89
2022/01/16 14:56:00;;;;;;;116.67;49.58;;;;;;;1.68;75.39;99141.03;4002291;87;21109;-87
2022/01/16 15:02:02;;;;;;;116.65;48.20;;;;;;;1.55;75.43;99132.72;4003763;88;21090;-88
2022/01/16 15:08:04;;;;;;;113.75;49.05;;;;;;;1.51;75.30;99126.38;3999737;87;21062;-89
2022/01/16 15:14:07;;;;;;;113.77;49.15;;;;;;;1.40;75.38;99100.78;4003516;88;21085;-87
2022/01/16 15:20:16;;;;;;;115.92;48.60;;;;;;;1.31;75.32;99109.41;3997737;88;21090;-87
2022/01/16 15:26:14;;;;;;;;;;;;;;;1.16;75.27;99117.11;3958434;88;21155;-87
2022/01/16 15:32:17;;;;;;;112.62;45.43;;;;;;;0.87;74.69;99112.73;3895524;90;20182;-86
2022/01/16 15:38:27;;;;;;;108.42;46.83;;;;;;;0.73;75.51;99105.28;3935486;89;21065;-88
2022/01/16 15:44:22;;;;;;;123.92;50.92;;;;;;;0.70;76.19;99122.88;4007278;86;21554;-87
2022/01/16 15:50:25;;;;;;;130.22;54.70;;;;;;;0.59;76.08;99129.61;4005462;86;21632;-87
2022/01/16 15:56:27;;;;;;;114.85;51.55;;;;;;;0.23;75.54;99124.81;4003732;87;21077;-87
2022/01/16 16:02:28;;;;;;;124.87;56.88;;;;;;;0.06;76.42;99128.70;4044645;86;21539;-87
2022/01/16 16:08:29;;;;;;;139.97;59.40;;;;;;;0.03;76.63;99140.85;4025969;87;21164;-87
2022/01/16 16:14:32;;;;;;;133.95;58.70;;;;;;;0.00;76.84;99132.61;4051733;86;21053;-87
2022/01/16 16:20:36;;;;;;;151.10;66.85;;;;;;;-0.20;76.56;99124.95;4037841;86;21067;-88
2022/01/16 16:26:37;;;;;;;127.50;58.28;;;;;;;-0.30;76.79;99127.87;3957908;88;21143;-87
2022/01/16 16:32:38;;;;;;;143.97;60.48;;;;;;;-0.40;77.17;99143.66;4024755;87;21045;-88
2022/01/16 16:38:40;;;;;;;176.65;71.15;;;;;;;-0.66;76.52;99137.17;4020420;85;20995;-88
2022/01/16 16:44:43;;;;;;;150.85;65.87;;;;;;;-0.87;76.92;99144.57;3971116;88;21564;-89
2022/01/16 16:50:46;;;;;;;134.37;59.13;;;;;;;-0.96;77.81;99135.61;4028853;87;21104;-90
2022/01/16 16:56:47;;;;;;;146.22;62.30;;;;;;;-0.96;77.81;99135.61;4004117;87;21108;-90
2022/01/16 17:02:49;;;;;;;140.65;60.45;;;;;;;-1.02;78.22;99143.52;4005098;87;21567;-89
2022/01/16 17:08:51;;;;;;;159.75;66.75;;;;;;;-1.05;78.66;99161.57;4066159;85;21086;-89
2022/01/16 17:14:52;;;;;;;144.72;62.20;;;;;;;-1.08;78.78;99160.81;4043988;87;21066;-89
2022/01/16 17:20:54;;;;;;;153.10;64.62;;;;;;;-1.10;79.18;99161.11;4048408;87;21592;-88
2022/01/16 17:26:55;;;;;;;157.35;69.92;;;;;;;-1.14;78.55;99156.63;4142117;84;21542;-90
2022/01/16 17:32:56;;;;;;;173.22;72.42;;;;;;;-1.06;79.32;99158.08;4139079;84;21034;-90
2022/01/16 17:38:58;;;;;;;162.12;71.10;;;;;;;-0.98;79.76;99168.69;4137740;84;21063;-90
2022/01/16 17:44:59;;;;;;;153.87;67.60;;;;;;;-0.84;79.66;99170.85;4130015;82;83434;-89
2022/01/16 17:51:01;;;;;;;149.07;63.53;;;;;;;-0.87;79.71;99173.59;4057590;86;21070;-91
2022/01/16 17:57:03;;;;;;;155.87;64.10;;;;;;;-0.87;80.05;99195.09;4063763;87;21095;-89
2022/01/16 18:03:05;;;;;;;143.00;58.15;;;;;;;-0.81;80.32;99199.28;4060525;86;21041;-90
2022/01/16 18:09:06;;;;;;;153.07;59.25;;;;;;;-0.69;80.59;99210.92;4072068;85;21602;-90
2022/01/16 18:15:08;;;;;;;114.42;48.70;;;;;;;-0.69;80.82;99194.22;4064699;87;21080;-90
2022/01/16 18:21:10;;;;;;;110.50;47.03;;;;;;;-0.54;81.12;99215.47;4068427;87;21066;-90
2022/01/16 18:27:12;;;;;;;103.95;41.85;;;;;;;-0.45;81.31;99211.53;4060197;87;21043;-91
2022/01/16 18:33:13;;;;;;;93.82;38.53;;;;;;;-0.41;81.51;99216.58;4066444;87;21030;-90
2022/01/16 18:39:15;;;;;;;82.17;34.95;;;;;;;-0.36;81.80;99235.32;4060389;85;21082;-90
2022/01/16 18:45:18;;;;;;;72.82;29.65;;;;;;;-0.29;81.64;99225.75;4073401;86;21049;-91
2022/01/16 18:51:19;;;;;;;64.65;26.95;;;;;;;-0.24;82.04;99247.19;4043318;86;21134;-90
2022/01/16 18:57:22;;;;;;;55.35;24.35;;;;;;;-0.18;82.04;99254.06;3999585;87;21335;-90
2022/01/16 19:03:24;;;;;;;53.28;22.30;;;;;;;-0.14;82.33;99266.34;4016435;86;21030;-90
2022/01/16 19:09:25;;;;;;;54.05;23.65;;;;;;;-0.15;82.46;99268.27;4017900;87;21059;-90
2022/01/16 19:15:27;;;;;;;55.78;23.85;;;;;;;-0.14;82.56;99260.42;4021359;86;21536;-90
2022/01/16 19:21:28;;;;;;;54.40;22.05;;;;;;;-0.13;82.68;99265.27;4022331;87;21019;-90
2022/01/16 19:27:29;;;;;;;49.75;22.60;;;;;;;-0.20;83.00;99275.08;4024425;86;21097;-90
2022/01/16 19:33:32;;;;;;;45.23;20.35;;;;;;;-0.20;83.32;99286.38;4027650;86;21365;-91
2022/01/16 19:39:33;;;;;;;49.27;21.00;;;;;;;-0.13;83.70;99276.84;4026577;87;21640;-87
2022/01/16 19:45:42;;;;;;;46.63;21.75;;;;;;;0.03;83.79;99280.81;4030283;86;21116;-91
2022/01/16 19:51:44;;;;;;;43.02;21.90;;;;;;;0.21;84.04;99290.42;4035585;86;21844;-91
2022/01/16 19:57:46;;;;;;;42.70;22.02;;;;;;;0.38;84.13;99281.19;3962392;88;21051;-90
2022/01/16 20:03:47;;;;;;;49.85;23.77;;;;;;;0.46;84.28;99288.56;3890252;89;21689;-92
2022/01/16 20:09:49;;;;;;;55.83;26.85;;;;;;;0.46;84.28;99288.56;3980362;87;21090;-91
2022/01/16 20:15:50;;;;;;;64.42;26.33;;;;;;;0.52;84.33;99282.77;3910494;89;21062;-91
2022/01/16 20:21:53;;;;;;;61.98;27.15;;;;;;;0.51;84.53;99271.75;3998321;87;21150;-91
2022/01/16 20:27:55;;;;;;;53.15;25.35;;;;;;;0.63;84.33;99271.21;3941709;88;21075;-90
2022/01/16 20:33:58;;;;;;;49.33;23.85;;;;;;;0.83;84.38;99299.85;3932330;88;21091;-90
2022/01/16 20:40:00;;;;;;;49.63;22.73;;;;;;;0.85;84.44;99294.97;3995119;87;21058;-90
2022/01/16 20:46:01;;;;;;;43.42;21.17;;;;;;;0.91;84.38;99292.97;3933568;89;22158;-90
2022/01/16 20:52:03;;;;;;;50.33;22.22;;;;;;;0.93;84.37;99296.13;3982534;88;21126;-90
2022/01/16 20:58:08;;;;;;;45.85;22.87;;;;;;;0.97;84.39;99295.22;3916168;89;21096;-90
2022/01/16 21:04:09;;;;;;;44.83;22.15;;;;;;;1.05;84.33;99298.53;3928012;88;21106;-89
2022/01/16 21:10:11;;;;;;;41.98;21.68;;;;;;;1.07;84.33;99290.95;3912149;89;21048;-89
2022/01/16 21:16:14;;;;;;;44.42;20.80;;;;;;;1.15;84.30;99287.52;3914470;89;21138;-91
2022/01/16 21:22:18;;;;;;;48.15;21.95;;;;;;;1.16;84.48;99285.63;3907792;89;21726;-90
2022/01/16 21:28:21;;;;;;;43.85;21.68;;;;;;;1.15;84.40;99279.98;3928116;89;21073;-90
2022/01/16 21:34:22;;;;;;;44.25;21.68;;;;;;;1.19;84.28;99283.09;3925249;89;21824;-89
2022/01/16 21:40:24;;;;;;;42.30;20.25;;;;;;;1.16;84.23;99271.58;4055225;86;21613;-89
2022/01/16 21:46:25;;;;;;;39.98;20.43;;;;;;;1.16;84.25;99269.45;3957905;89;21569;-88
2022/01/16 21:52:27;;;;;;;40.28;18.70;;;;;;;1.17;84.28;99258.91;3940335;88;21126;-90
2022/01/16 21:58:28;;;;;;;36.70;17.52;;;;;;;1.11;84.29;99263.61;3940452;88;21078;-90
2022/01/16 22:04:32;;;;;;;36.50;18.32;;;;;;;1.12;84.42;99259.02;3974676;87;21671;-88
2022/01/16 22:10:33;;;;;;;34.23;17.02;;;;;;;1.18;84.37;99259.95;3936743;88;21110;-89
2022/01/16 22:16:34;;;;;;;31.48;15.88;;;;;;;1.19;84.41;99258.05;4001329;87;21090;-90
2022/01/16 22:22:36;;;;;;;35.33;16.95;;;;;;;1.22;84.49;99268.23;3912638;89;21042;-90
2022/01/16 22:28:37;;;;;;;36.23;16.52;;;;;;;1.19;84.60;99258.05;4006958;87;22317;-89
2022/01/16 22:34:38;;;;;;;37.90;16.67;;;;;;;1.16;84.86;99266.19;3929381;89;21078;-91
2022/01/16 22:40:40;;;;;;;31.07;15.55;;;;;;;1.16;84.98;99265.41;3942238;88;21698;-90
2022/01/16 22:46:43;;;;;;;31.77;15.38;;;;;;;1.09;85.39;99265.03;3947979;88;21105;-89
2022/01/16 22:52:45;;;;;;;31.73;15.40;;;;;;;1.04;85.55;99255.17;3936230;88;21138;-88
2022/01/16 22:58:48;;;;;;;28.98;14.15;;;;;;;0.97;85.72;99244.00;3952687;88;21067;-89
2022/01/16 23:04:49;;;;;;;28.42;15.32;;;;;;;1.00;85.82;99254.73;3955187;88;21074;-90
2022/01/16 23:10:51;;;;;;;25.65;14.15;;;;;;;0.99;85.92;99263.37;3896869;89;21102;-89
2022/01/16 23:16:53;;;;;;;22.25;13.08;;;;;;;1.01;86.13;99252.28;3959509;88;21173;-90
2022/01/16 23:22:54;;;;;;;22.20;12.10;;;;;;;1.02;86.14;99251.97;3915834;89;21132;-89
2022/01/16 23:28:56;;;;;;;19.12;11.83;;;;;;;1.03;86.28;99258.17;3950566;89;21155;-89
2022/01/16 23:34:57;;;;;;;22.32;11.15;;;;;;;1.05;86.66;99247.89;3953094;88;21007;-90
2022/01/16 23:40:58;;;;;;;21.05;11.03;;;;;;;1.09;86.50;99238.07;3927613;89;21572;-90
2022/01/16 23:47:00;;;;;;;17.90;10.03;;;;;;;1.10;86.59;99239.65;4031499;87;21629;-89
2022/01/16 23:53:01;;;;;;;19.55;10.08;;;;;;;1.15;86.63;99240.34;4023998;86;21141;-88
2022/01/16 23:59:03;;;;;;;20.17;12.00;;;;;;;1.21;86.91;99231.55;4022395;87;21054;-89
